METAR Data

Data at: 0950 UTC 23 Jan 2019

METAR for:EGLF (Farnborough Arpt, --, UK)
Text:EGLF 230920Z 30005KT 270V330 9999 SCT007 BKN011 00/M01 Q1001
Temperature: 0.0°C ( 32°F)
Dewpoint: -1.0°C ( 30°F) [RH = 93%]
Pressure (altimeter):29.56 inches Hg (1001.0 mb)
Winds:from the WNW (300 degrees) at 6 MPH (5 knots; 2.6 m/s)
Visibility:6 or more sm (10+ km)
Ceiling:1100 feet AGL
Clouds: scattered clouds at 700 feet AGL, broken clouds at 1100 feet AGL

TAF for:EGLF (Farnborough Arpt, --, UK) issued at 0758 UTC 23 Jan 2019
Text:TAF EGLF 230758Z 2309/2318 34008KT 9999 FEW025
Forecast period:0900 to 1800 UTC 23 January 2019
Forecast type:FROM: standard forecast or significant change
Winds:from the NNW (340 degrees) at 9 MPH (8 knots; 4.1 m/s)
Visibility:6 or more sm (10+ km)
Ceiling:at least 12,000 feet AGL
Clouds: few clouds at 2500 feet AGL
Text:TEMPO 2309/2311 8000 BKN007
Forecast period:0900 to 1100 UTC 23 January 2019
Forecast type:TEMPORARY: The following changes expected for less than half the time period
Visibility: 5 sm ( 8 km)
Ceiling:700 feet AGL
Clouds: broken clouds at 700 feet AGL

METAR for:EGUB (Benson(RAF), --, UK)
Text:EGUB 230850Z 33006KT 9999 FEW013 BKN022 00/M01 Q1001 WHT BECMG SCT025 BLU
Temperature: 0.0°C ( 32°F)
Dewpoint: -1.0°C ( 30°F) [RH = 93%]
Pressure (altimeter):29.56 inches Hg (1001.0 mb)
Winds:from the NNW (330 degrees) at 7 MPH (6 knots; 3.1 m/s)
Visibility:6 or more sm (10+ km)
Ceiling:2200 feet AGL
Clouds: few clouds at 1300 feet AGL, broken clouds at 2200 feet AGL

TAF for:EGUB (Benson(RAF), --, UK) issued at 0757 UTC 23 Jan 2019
Text:TAF EGUB 230757Z 2309/2318 35005KT 9999 BKN007
Forecast period:0900 to 1800 UTC 23 January 2019
Forecast type:FROM: standard forecast or significant change
Winds:from the N (350 degrees) at 6 MPH (5 knots; 2.6 m/s)
Visibility:6 or more sm (10+ km)
Ceiling:700 feet AGL
Clouds: broken clouds at 700 feet AGL
Text:BECMG 2309/2310 FEW015
Forecast period:0900 to 1800 UTC 23 January 2019
Forecast type:BECOMING: Conditions expected to become as follows by 1000 UTC 23 January 2019
Winds:from the N (350 degrees) at 6 MPH (5 knots; 2.6 m/s)
Visibility:6 or more sm (10+ km)
Ceiling:at least 12,000 feet AGL
Clouds: few clouds at 1500 feet AGL
Text:PROB30 2309/2312 0500 FZFG VV///
Forecast period:0900 to 1200 UTC 23 January 2019
Forecast type:PROBABLE: 30 percent likelihood of the following during this time
Visibility: 0.31 sm ( 0.50 km)
Clouds:missing
Weather:FZFG (freezing fog)
Text:PROB40
Forecast period:1000 to 1500 UTC 23 January 2019
Forecast type:TEMPORARY: The following changes expected for less than half the time period
Ceiling:at least 12,000 feet AGL
Clouds: scattered clouds at 1500 feet AGL
Text:TEMPO 2310/2315 SCT015
Forecast period:1000 to 1200 UTC 23 January 2019
Forecast type:TEMPORARY: The following changes expected for less than half the time period
Ceiling:at least 12,000 feet AGL
Clouds: scattered clouds at 1200 feet AGL

METAR for:EGVO (Odiham(RAF), --, UK)
Text:EGVO 230917Z 32008KT 9999 HZ FEW007 BKN024 00/M01 Q1001 WHT TEMPO SCT012 GRN
Temperature: 0.0°C ( 32°F)
Dewpoint: -1.0°C ( 30°F) [RH = 93%]
Pressure (altimeter):29.56 inches Hg (1001.0 mb)
Winds:from the NW (320 degrees) at 9 MPH (8 knots; 4.1 m/s)
Visibility:6 or more sm (10+ km)
Ceiling:2400 feet AGL
Clouds: few clouds at 700 feet AGL, broken clouds at 2400 feet AGL
Weather:HZ (haze)

TAF for:EGVO (Odiham(RAF), --, UK) issued at 0751 UTC 23 Jan 2019
Text:TAF EGVO 230751Z 2309/2321 35010KT 9999 BKN007
Forecast period:0900 to 2100 UTC 23 January 2019
Forecast type:FROM: standard forecast or significant change
Winds:from the N (350 degrees) at 12 MPH (10 knots; 5.1 m/s)
Visibility:6 or more sm (10+ km)
Ceiling:700 feet AGL
Clouds: broken clouds at 700 feet AGL
Text:BECMG 2309/2312 FEW018
Forecast period:0900 to 2100 UTC 23 January 2019
Forecast type:BECOMING: Conditions expected to become as follows by 1200 UTC 23 January 2019
Winds:from the N (350 degrees) at 12 MPH (10 knots; 5.1 m/s)
Visibility:6 or more sm (10+ km)
Ceiling:at least 12,000 feet AGL
Clouds: few clouds at 1800 feet AGL
Text:PROB30
Forecast period:1200 to 1600 UTC 23 January 2019
Forecast type:TEMPORARY: The following changes expected for less than half the time period
Ceiling:at least 12,000 feet AGL
Clouds: scattered clouds at 1800 feet AGL

METAR for:EGTK (Oxford Arpt, --, UK)
Text:EGTK 230850Z 33008KT 9999 SCT022 00/M01 Q1001
Temperature: 0.0°C ( 32°F)
Dewpoint: -1.0°C ( 30°F) [RH = 93%]
Pressure (altimeter):29.56 inches Hg (1001.0 mb)
Winds:from the NNW (330 degrees) at 9 MPH (8 knots; 4.1 m/s)
Visibility:6 or more sm (10+ km)
Ceiling:at least 12,000 feet AGL
Clouds: scattered clouds at 2200 feet AGL

TAF for:EGTK (Oxford Arpt, --, UK) issued at 0806 UTC 23 Jan 2019
Text:TAF EGTK 230806Z 2309/2318 33009KT 9999 SCT020
Forecast period:0900 to 1800 UTC 23 January 2019
Forecast type:FROM: standard forecast or significant change
Winds:from the NNW (330 degrees) at 10 MPH (9 knots; 4.6 m/s)
Visibility:6 or more sm (10+ km)
Ceiling:at least 12,000 feet AGL
Clouds: scattered clouds at 2000 feet AGL

METAR for:EGHH (Bournemouth Intl, --, UK)
Text:EGHH 230920Z 32008KT 9999 FEW028 01/M01 Q1002
Temperature: 1.0°C ( 34°F)
Dewpoint: -1.0°C ( 30°F) [RH = 86%]
Pressure (altimeter):29.59 inches Hg (1002.0 mb)
Winds:from the NW (320 degrees) at 9 MPH (8 knots; 4.1 m/s)
Visibility:6 or more sm (10+ km)
Ceiling:at least 12,000 feet AGL
Clouds: few clouds at 2800 feet AGL

TAF for:EGHH (Bournemouth Intl, --, UK) issued at 0806 UTC 23 Jan 2019
Text:TAF EGHH 230806Z 2309/2318 34007KT 9999 FEW020
Forecast period:0900 to 1800 UTC 23 January 2019
Forecast type:FROM: standard forecast or significant change
Winds:from the NNW (340 degrees) at 8 MPH (7 knots; 3.6 m/s)
Visibility:6 or more sm (10+ km)
Ceiling:at least 12,000 feet AGL
Clouds: few clouds at 2000 feet AGL
Text:PROB30
Forecast period:0900 to 1000 UTC 23 January 2019
Forecast type:TEMPORARY: The following changes expected for less than half the time period
Visibility: 5 sm ( 8 km)
Ceiling:1200 feet AGL
Clouds: broken clouds at 1200 feet AGL

METAR for:
Text:No data found

TAF for:
Text:No data found